EKKA/KRP METAR and TAF weather

Enter ICAO airport designator
Station Type Date Time Source
EKKA METAR 2022/11/30 23:20 UTC NOAA

EKKA 302320Z AUTO 03005KT 9999 FEW007/// FEW016/// OVC077/// 02/01 Q1031


Station Type Date Time Source
EKKA Decoded METAR 2022/11/30 23:20 UTC NOAA

Karup, Denmark (EKKA) 56-18N 009-07E 53M
Nov 30, 2022 - 06:20 PM EST / 2022.11.30 2320 UTC
Wind: from the NNE (030 degrees) at 6 MPH (5 KT):0
Visibility: greater than 7 mile(s):0
Sky conditions: overcast
Temperature: 35 F (2 C)
Windchill: 30 F (-1 C):1
Dew Point: 33 F (1 C)
Relative Humidity: 93%
Pressure (altimeter): 30.45 in. Hg (1031 hPa)
ob: EKKA 302320Z AUTO 03005KT 9999 FEW007/// FEW016/// OVC077/// 02/01 Q1031
cycle: 23

Station Type Date Time Source
EKKA TAF 2022/11/30 22:31 UTC NOAA

TAF
AMD EKKA 302220Z 3022/0121 03006KT 8000 BKN020
TEMPO 3022/3024 5000 BR BKN008
TEMPO 0100/0106 1800 BCFG -SHRASN BKN008 SCT020TCU
TEMPO 0106/0121 -SHRASN BKN008 SCT020TCU

Example: see airport list